createdAt,value
2023-03-21T00:02:24.274Z,10.03
2023-03-21T00:04:54.936Z,10.15
2023-03-21T00:07:22.931Z,10.15
2023-03-21T00:09:51.496Z,10.25
2023-03-21T00:12:21.032Z,9.98
2023-03-21T00:14:48.941Z,10.07
2023-03-21T00:17:17.489Z,10.10
2023-03-21T00:19:46.254Z,10.38
2023-03-21T00:22:14.296Z,10.38
2023-03-21T00:24:42.091Z,10.02
2023-03-21T00:27:39.328Z,10.11
2023-03-21T00:29:59.131Z,10.17
2023-03-21T00:32:27.601Z,10.18
2023-03-21T00:35:11.933Z,10.27
2023-03-21T00:37:43.862Z,10.25
2023-03-21T00:40:25.334Z,10.05
2023-03-21T00:42:55.696Z,10.04
2023-03-21T00:45:25.025Z,10.15
2023-03-21T00:47:53.067Z,10.14
2023-03-21T00:50:21.147Z,9.89
2023-03-21T00:52:49.225Z,10.05
2023-03-21T00:55:19.337Z,10.17
2023-03-21T00:57:56.218Z,10.07
2023-03-21T01:00:30.976Z,10.16
2023-03-21T01:03:11.132Z,10.04
2023-03-21T01:06:00.668Z,10.22
2023-03-21T01:08:38.191Z,10.31
2023-03-21T01:11:14.861Z,10.26
2023-03-21T01:13:53.705Z,10.09
2023-03-21T01:16:27.211Z,10.15
2023-03-21T01:18:56.072Z,10.26
2023-03-21T01:21:24.256Z,10.14
2023-03-21T01:23:52.089Z,10.03
2023-03-21T01:26:19.957Z,10.16
2023-03-21T01:28:48.014Z,10.15
2023-03-21T01:31:17.580Z,10.05
2023-03-21T01:33:47.548Z,10.08
2023-03-21T01:36:22.439Z,10.14
2023-03-21T01:38:53.372Z,10.20
2023-03-21T01:41:33.628Z,10.02
2023-03-21T01:44:16.877Z,9.97
2023-03-21T01:46:57.004Z,9.91
2023-03-21T01:49:50.818Z,9.93
2023-03-21T01:52:36.402Z,10.03
2023-03-21T01:55:11.674Z,9.83
2023-03-21T01:58:03.882Z,10.18
2023-03-21T02:00:38.651Z,10.01
2023-03-21T02:03:35.060Z,9.92
2023-03-21T02:06:47.411Z,10.12
2023-03-21T02:09:40.830Z,10.17
2023-03-21T02:12:16.285Z,10.27
2023-03-21T02:14:44.914Z,10.31
2023-03-21T02:17:28.251Z,10.20
2023-03-21T02:20:30.820Z,10.15
2023-03-21T02:23:48.803Z,10.33
2023-03-21T02:26:41.982Z,10.08
2023-03-21T02:29:32.996Z,9.90
2023-03-21T02:32:22.582Z,10.09
2023-03-21T02:35:21.095Z,10.15
2023-03-21T02:38:00.545Z,10.06
2023-03-21T02:40:36.270Z,10.04
2023-03-21T02:43:22.194Z,10.08
2023-03-21T02:45:55.630Z,9.83
2023-03-21T02:48:38.137Z,10.16
2023-03-21T02:51:17.319Z,10.06
2023-03-21T02:54:02.104Z,10.15
2023-03-21T02:56:40.299Z,10.34
2023-03-21T02:59:09.583Z,10.28
2023-03-21T03:01:38.353Z,10.03
2023-03-21T03:04:19.531Z,9.94
2023-03-21T03:07:07.839Z,10.13
2023-03-21T03:09:49.016Z,10.13
2023-03-21T03:12:24.255Z,10.07
2023-03-21T03:15:03.869Z,10.06
2023-03-21T03:17:44.436Z,10.08
2023-03-21T03:20:21.647Z,10.18
2023-03-21T03:22:56.483Z,10.21
2023-03-21T03:25:42.090Z,10.09
2023-03-21T03:28:15.506Z,10.20
2023-03-21T03:30:57.166Z,10.33
2023-03-21T03:33:37.115Z,10.14
2023-03-21T03:36:09.422Z,10.02
2023-03-21T03:38:40.346Z,10.23
2023-03-21T03:41:15.328Z,10.19
2023-03-21T03:43:52.313Z,10.41
2023-03-21T03:46:28.045Z,10.37
2023-03-21T03:48:59.406Z,10.39
2023-03-21T03:51:33.543Z,10.50
2023-03-21T03:54:14.058Z,10.65
2023-03-21T03:56:44.378Z,10.66
2023-03-21T03:59:12.582Z,10.68
2023-03-21T04:01:55.598Z,10.50
2023-03-21T04:04:28.571Z,10.62
2023-03-21T04:06:58.151Z,10.60
2023-03-21T04:09:41.248Z,10.56
2023-03-21T04:12:14.154Z,10.10
2023-03-21T04:14:48.187Z,10.62
2023-03-21T04:17:18.600Z,10.62
2023-03-21T04:19:46.670Z,10.47
2023-03-21T04:22:14.749Z,10.55
2023-03-21T04:24:44.847Z,10.61
2023-03-21T04:27:15.510Z,10.52
2023-03-21T04:29:48.549Z,10.14
2023-03-21T04:32:26.799Z,10.53
2023-03-21T04:35:10.636Z,10.39
2023-03-21T04:37:40.242Z,10.29
2023-03-21T04:40:17.824Z,10.42
2023-03-21T04:42:48.946Z,10.42
2023-03-21T04:45:17.606Z,10.51
2023-03-21T04:47:46.893Z,10.46
2023-03-21T04:50:15.906Z,10.49
2023-03-21T04:52:44.325Z,10.41
2023-03-21T04:55:12.245Z,10.53
2023-03-21T04:57:40.416Z,10.50
2023-03-21T05:00:13.024Z,10.26
2023-03-21T05:02:41.109Z,10.55
2023-03-21T05:05:11.365Z,10.35
2023-03-21T05:07:39.172Z,10.58
2023-03-21T05:10:08.856Z,10.60
2023-03-21T05:12:36.995Z,10.68
2023-03-21T05:15:05.540Z,10.41
2023-03-21T05:17:34.797Z,10.62
2023-03-21T05:20:05.667Z,10.56
2023-03-21T05:22:40.348Z,10.62
2023-03-21T05:25:12.260Z,10.45
2023-03-21T05:28:09.555Z,10.42
2023-03-21T05:30:37.830Z,10.42
2023-03-21T05:33:07.032Z,10.43
2023-03-21T05:35:36.208Z,10.43
2023-03-21T05:38:06.928Z,10.53
2023-03-21T05:40:48.063Z,10.56
2023-03-21T05:43:15.863Z,10.64
2023-03-21T05:45:44.248Z,10.68
2023-03-21T05:48:13.773Z,10.47
2023-03-21T05:50:59.808Z,10.55
2023-03-21T05:53:28.094Z,10.75
2023-03-21T05:55:56.315Z,10.81
2023-03-21T05:58:40.600Z,10.84
2023-03-21T06:01:08.808Z,10.80
2023-03-21T06:03:40.503Z,10.84
2023-03-21T06:06:14.638Z,10.87
2023-03-21T06:09:08.529Z,10.94
2023-03-21T06:11:39.828Z,11.01
2023-03-21T06:14:30.691Z,11.01
2023-03-21T06:17:17.881Z,11.00
2023-03-21T06:19:58.392Z,10.99
2023-03-21T06:22:30.828Z,10.92
2023-03-21T06:24:58.974Z,10.90
2023-03-21T06:27:27.979Z,10.79
2023-03-21T06:29:58.026Z,10.92
2023-03-21T06:32:27.285Z,11.02
2023-03-21T06:35:02.153Z,10.93
2023-03-21T06:37:29.932Z,11.00
2023-03-21T06:39:58.006Z,11.12
2023-03-21T06:42:26.392Z,10.95
2023-03-21T06:45:00.314Z,11.12
2023-03-21T06:47:28.962Z,11.05
2023-03-21T06:49:57.372Z,11.02
2023-03-21T06:52:26.660Z,11.03
2023-03-21T06:54:54.939Z,11.22
2023-03-21T06:57:22.917Z,10.91
2023-03-21T06:59:51.773Z,11.25
2023-03-21T07:02:21.858Z,11.49
2023-03-21T07:05:10.675Z,11.42
2023-03-21T07:07:39.864Z,11.50
2023-03-21T07:10:09.268Z,11.33
2023-03-21T07:12:45.915Z,11.25
2023-03-21T07:15:26.317Z,11.12
2023-03-21T07:17:54.350Z,11.27
2023-03-21T07:20:22.206Z,11.35
2023-03-21T07:22:51.522Z,11.28
2023-03-21T07:25:20.541Z,11.28
2023-03-21T07:27:49.412Z,11.30
2023-03-21T07:30:18.196Z,11.42
2023-03-21T07:32:47.680Z,11.52
2023-03-21T07:35:18.544Z,11.43
2023-03-21T07:37:46.384Z,11.50
2023-03-21T07:40:18.975Z,11.66
2023-03-21T07:42:49.637Z,11.53
2023-03-21T07:45:28.901Z,11.74
2023-03-21T07:47:56.712Z,11.77
2023-03-21T07:50:25.144Z,11.81
2023-03-21T07:52:52.956Z,12.05
2023-03-21T07:55:22.577Z,12.00
2023-03-21T07:57:51.537Z,11.99
2023-03-21T08:00:23.034Z,12.00
2023-03-21T08:02:57.921Z,12.07
2023-03-21T08:05:30.894Z,11.98
2023-03-21T08:07:58.683Z,11.97
2023-03-21T08:10:28.246Z,12.08
2023-03-21T08:12:56.264Z,12.24
2023-03-21T08:15:24.317Z,12.21
2023-03-21T08:17:52.156Z,12.23
2023-03-21T08:20:21.954Z,12.10
2023-03-21T08:22:50.432Z,12.13
2023-03-21T08:25:21.696Z,12.42
2023-03-21T08:27:52.372Z,12.71
2023-03-21T08:30:22.193Z,12.40
2023-03-21T08:32:50.983Z,12.54
2023-03-21T08:35:20.641Z,12.14
2023-03-21T08:37:48.795Z,12.58
2023-03-21T08:40:18.885Z,12.73
2023-03-21T08:42:47.535Z,12.85
2023-03-21T08:45:18.494Z,12.66
2023-03-21T08:47:46.750Z,12.66
2023-03-21T08:50:17.148Z,12.93
2023-03-21T08:52:44.756Z,12.89
2023-03-21T08:55:14.142Z,12.97
2023-03-21T08:57:42.116Z,13.03
2023-03-21T09:00:13.955Z,12.95
2023-03-21T09:02:43.437Z,13.15
2023-03-21T09:05:12.865Z,12.53
2023-03-21T09:07:41.617Z,13.31
2023-03-21T09:10:22.365Z,13.31
2023-03-21T09:12:51.684Z,12.94
2023-03-21T09:15:21.642Z,13.23
2023-03-21T09:17:53.268Z,13.38
2023-03-21T09:20:26.177Z,13.24
2023-03-21T09:22:54.941Z,13.39
2023-03-21T09:25:23.667Z,12.93
2023-03-21T09:27:51.838Z,13.31
2023-03-21T09:30:23.730Z,13.00
2023-03-21T09:32:55.750Z,12.79
2023-03-21T09:35:24.412Z,12.72
2023-03-21T09:37:52.593Z,12.84
2023-03-21T09:40:25.607Z,12.81
2023-03-21T09:43:05.957Z,12.84
2023-03-21T09:45:38.561Z,12.71
2023-03-21T09:48:20.056Z,12.74
2023-03-21T09:50:48.493Z,12.77
2023-03-21T09:53:27.078Z,12.88
2023-03-21T09:55:54.995Z,12.85
2023-03-21T09:58:28.481Z,12.85
2023-03-21T10:01:05.274Z,13.10
2023-03-21T10:03:36.356Z,12.89
2023-03-21T10:06:11.379Z,12.68
2023-03-21T10:08:42.227Z,12.86
2023-03-21T10:11:16.994Z,12.71
2023-03-21T10:13:49.483Z,13.00
2023-03-21T10:16:22.511Z,12.98
2023-03-21T10:18:52.342Z,12.91
2023-03-21T10:21:51.282Z,13.20
2023-03-21T10:24:15.725Z,13.21
2023-03-21T10:26:45.017Z,12.63
2023-03-21T10:29:16.684Z,13.23
2023-03-21T10:31:46.181Z,13.27
2023-03-21T10:34:19.775Z,12.99
2023-03-21T10:36:48.303Z,12.81
2023-03-21T10:39:25.552Z,12.87
2023-03-21T10:41:53.325Z,13.17
2023-03-21T10:44:22.491Z,13.27
2023-03-21T10:46:53.465Z,13.31
2023-03-21T10:49:23.466Z,13.27
2023-03-21T10:51:53.382Z,13.56
2023-03-21T10:54:23.279Z,13.11
2023-03-21T10:56:58.785Z,13.33
2023-03-21T10:59:30.136Z,13.51
2023-03-21T11:01:58.211Z,13.68
2023-03-21T11:04:30.834Z,13.32
2023-03-21T11:07:01.297Z,13.46
2023-03-21T11:09:46.033Z,13.52
2023-03-21T11:12:15.924Z,13.72
2023-03-21T11:14:45.620Z,13.66
2023-03-21T11:17:24.860Z,13.77
2023-03-21T11:19:57.891Z,13.21
2023-03-21T11:22:30.265Z,13.32
2023-03-21T11:25:02.651Z,13.25
2023-03-21T11:27:32.418Z,13.33
2023-03-21T11:30:05.090Z,13.28
2023-03-21T11:32:35.891Z,12.59
2023-03-21T11:35:07.783Z,13.13
2023-03-21T11:37:39.730Z,13.01
2023-03-21T11:40:20.522Z,12.89
2023-03-21T11:42:51.870Z,12.87
2023-03-21T11:45:21.780Z,12.96
2023-03-21T11:47:52.233Z,13.14
2023-03-21T11:50:28.174Z,12.95
2023-03-21T11:53:16.913Z,13.02
2023-03-21T11:55:55.334Z,12.99
2023-03-21T11:58:38.910Z,13.26
2023-03-21T12:01:17.602Z,13.29
2023-03-21T12:04:01.227Z,13.29
2023-03-21T12:06:36.116Z,13.24
2023-03-21T12:09:15.636Z,12.82
2023-03-21T12:11:59.174Z,13.19
2023-03-21T12:14:37.982Z,13.28
2023-03-21T12:17:13.815Z,12.88
2023-03-21T12:20:10.762Z,13.03
2023-03-21T12:22:48.451Z,13.24
2023-03-21T12:25:19.538Z,13.09
2023-03-21T12:28:02.791Z,13.24
2023-03-21T12:30:36.524Z,13.07
2023-03-21T12:33:24.060Z,13.25
2023-03-21T12:36:13.054Z,13.30
2023-03-21T12:38:47.886Z,13.39
2023-03-21T12:41:25.533Z,13.31
2023-03-21T12:44:00.618Z,13.11
2023-03-21T12:46:34.562Z,13.02
2023-03-21T12:49:08.913Z,12.94
2023-03-21T12:51:42.219Z,12.98
2023-03-21T12:54:18.940Z,13.15
2023-03-21T12:56:53.991Z,13.27
2023-03-21T12:59:33.347Z,13.08
2023-03-21T13:02:15.450Z,13.16
2023-03-21T13:04:48.554Z,13.03
2023-03-21T13:07:21.000Z,12.94
2023-03-21T13:09:51.308Z,13.09
2023-03-21T13:12:23.320Z,13.07
2023-03-21T13:15:03.514Z,13.15
2023-03-21T13:17:38.079Z,13.18
2023-03-21T13:20:20.193Z,13.19
2023-03-21T13:22:48.174Z,13.01
2023-03-21T13:25:22.907Z,13.00
2023-03-21T13:27:55.761Z,13.06
2023-03-21T13:30:26.484Z,13.03
2023-03-21T13:33:05.691Z,13.16
2023-03-21T13:35:38.382Z,12.96
2023-03-21T13:38:12.881Z,13.07
2023-03-21T13:40:46.358Z,12.95
2023-03-21T13:43:34.832Z,13.10
2023-03-21T13:46:08.693Z,13.02
2023-03-21T13:48:59.092Z,12.71
2023-03-21T13:51:44.217Z,12.84
2023-03-21T13:54:21.840Z,12.82
2023-03-21T13:56:54.136Z,12.97
2023-03-21T13:59:39.377Z,13.13
2023-03-21T14:02:28.537Z,12.78
2023-03-21T14:05:05.449Z,12.96
2023-03-21T14:07:36.654Z,13.31
2023-03-21T14:10:07.917Z,13.48
2023-03-21T14:12:40.706Z,13.46
2023-03-21T14:15:18.840Z,13.22
2023-03-21T14:17:54.818Z,13.13
2023-03-21T14:20:25.593Z,13.24
2023-03-21T14:22:53.791Z,13.28
2023-03-21T14:25:27.225Z,13.13
2023-03-21T14:28:01.271Z,13.05
2023-03-21T14:30:33.265Z,13.22
2023-03-21T14:33:06.864Z,13.24
2023-03-21T14:35:35.222Z,13.37
2023-03-21T14:38:07.441Z,13.22
2023-03-21T14:40:36.211Z,13.38
2023-03-21T14:43:07.503Z,13.44
2023-03-21T14:45:37.362Z,13.67
2023-03-21T14:48:08.514Z,13.64
2023-03-21T14:50:41.885Z,13.52
2023-03-21T14:53:17.186Z,13.74
2023-03-21T14:55:47.336Z,13.63
2023-03-21T14:58:19.189Z,13.56
2023-03-21T15:00:50.474Z,13.43
2023-03-21T15:03:18.973Z,13.37
2023-03-21T15:05:47.508Z,13.44
2023-03-21T15:08:17.079Z,13.47
2023-03-21T15:11:06.335Z,13.19
2023-03-21T15:13:41.280Z,13.36
2023-03-21T15:16:10.842Z,13.13
2023-03-21T15:18:41.128Z,13.11
2023-03-21T15:21:17.192Z,13.20
2023-03-21T15:23:47.437Z,13.35
2023-03-21T15:26:16.700Z,13.28
2023-03-21T15:28:48.673Z,13.22
2023-03-21T15:31:19.635Z,13.30
2023-03-21T15:33:48.726Z,13.57
2023-03-21T15:36:21.859Z,13.46
2023-03-21T15:38:50.387Z,13.42
2023-03-21T15:41:27.698Z,13.39
2023-03-21T15:44:03.299Z,13.51
2023-03-21T15:46:41.639Z,13.38
2023-03-21T15:49:12.300Z,13.31
2023-03-21T15:51:42.709Z,13.35
2023-03-21T15:54:15.193Z,13.27
2023-03-21T15:56:46.076Z,13.08
2023-03-21T15:59:18.106Z,13.05
2023-03-21T16:01:47.662Z,13.09
2023-03-21T16:04:18.389Z,13.05
2023-03-21T16:06:57.884Z,13.17
2023-03-21T16:09:26.356Z,13.24
2023-03-21T16:11:55.439Z,13.16
2023-03-21T16:14:27.784Z,13.10
2023-03-21T16:16:56.243Z,12.97
2023-03-21T16:19:24.895Z,12.74
2023-03-21T16:21:53.326Z,13.12
2023-03-21T16:24:21.056Z,13.27
2023-03-21T16:26:51.720Z,13.09
2023-03-21T16:29:20.700Z,12.63
2023-03-21T16:31:50.018Z,12.28
2023-03-21T16:34:17.878Z,12.93
2023-03-21T16:36:45.816Z,12.84
2023-03-21T16:39:19.839Z,12.95
2023-03-21T16:41:48.333Z,12.86
2023-03-21T16:44:16.616Z,12.96
2023-03-21T16:46:44.541Z,12.76
2023-03-21T16:49:21.842Z,12.82
2023-03-21T16:51:49.677Z,12.88
2023-03-21T16:54:17.961Z,12.78
2023-03-21T16:56:47.659Z,12.81
2023-03-21T16:59:16.220Z,12.60
2023-03-21T17:01:45.946Z,12.39
2023-03-21T17:04:14.766Z,12.43
2023-03-21T17:06:47.331Z,12.58
2023-03-21T17:09:17.054Z,12.64
2023-03-21T17:11:44.817Z,12.47
2023-03-21T17:14:14.280Z,12.34
2023-03-21T17:16:43.049Z,12.18
2023-03-21T17:19:16.144Z,12.56
2023-03-21T17:21:45.610Z,12.61
2023-03-21T17:24:13.671Z,12.48
2023-03-21T17:26:41.494Z,12.32
2023-03-21T17:29:11.958Z,12.61
2023-03-21T17:31:39.832Z,12.45
2023-03-21T17:34:08.522Z,12.49
2023-03-21T17:36:38.134Z,12.45
2023-03-21T17:39:09.447Z,12.45
2023-03-21T17:41:37.332Z,12.09
2023-03-21T17:44:05.360Z,12.37
2023-03-21T17:46:37.462Z,12.26
2023-03-21T17:49:06.145Z,12.24
2023-03-21T17:51:34.075Z,12.14
2023-03-21T17:54:02.430Z,12.13
2023-03-21T17:56:33.407Z,11.96
2023-03-21T17:59:04.205Z,12.01
2023-03-21T18:01:32.924Z,11.85
2023-03-21T18:04:02.739Z,11.63
2023-03-21T18:06:30.744Z,11.90
2023-03-21T18:08:59.677Z,11.90
2023-03-21T18:11:28.500Z,11.87
2023-03-21T18:14:13.846Z,11.91
2023-03-21T18:16:43.895Z,11.80
2023-03-21T18:19:13.165Z,11.90
2023-03-21T18:21:44.795Z,11.98
2023-03-21T18:24:13.035Z,12.04
2023-03-21T18:26:41.209Z,11.91
2023-03-21T18:32:06.822Z,11.90
2023-03-21T18:34:36.258Z,11.81
2023-03-21T18:37:04.530Z,11.91
2023-03-21T18:39:33.006Z,11.98
2023-03-21T18:42:02.486Z,12.09
2023-03-21T18:44:37.299Z,11.85
2023-03-21T18:47:06.513Z,11.87
2023-03-21T18:50:10.449Z,11.99
2023-03-21T18:52:22.906Z,11.77
2023-03-21T18:54:50.778Z,11.68
2023-03-21T18:57:37.422Z,11.83
2023-03-21T19:00:13.056Z,11.83
2023-03-21T19:02:45.999Z,11.81
2023-03-21T19:05:16.001Z,12.05
2023-03-21T19:07:43.853Z,12.00
2023-03-21T19:10:17.972Z,12.01
2023-03-21T19:12:46.751Z,11.76
2023-03-21T19:15:18.683Z,11.37
2023-03-21T19:18:28.573Z,11.58
2023-03-21T19:20:35.122Z,11.62
2023-03-21T19:23:03.307Z,11.72
2023-03-21T19:25:31.265Z,11.83
2023-03-21T19:27:59.038Z,11.81
2023-03-21T19:30:28.282Z,11.81
2023-03-21T19:32:56.257Z,11.75
2023-03-21T19:35:24.156Z,11.72
2023-03-21T19:37:51.998Z,11.74
2023-03-21T19:40:20.632Z,11.72
2023-03-21T19:42:48.490Z,11.90
2023-03-21T19:45:16.309Z,11.84
2023-03-21T19:47:46.240Z,11.85
2023-03-21T19:53:02.013Z,11.70
2023-03-21T19:55:29.973Z,11.75
2023-03-21T19:57:58.063Z,11.84
2023-03-21T20:00:26.016Z,11.79
2023-03-21T20:02:55.461Z,11.57
2023-03-21T20:05:25.612Z,11.60
2023-03-21T20:07:55.376Z,11.56
2023-03-21T20:10:23.472Z,11.58
2023-03-21T20:12:51.391Z,11.62
2023-03-21T20:15:21.620Z,11.38
2023-03-21T20:17:50.397Z,11.31
2023-03-21T20:20:20.293Z,11.34
2023-03-21T20:23:10.745Z,11.44
2023-03-21T20:25:41.403Z,11.41
2023-03-21T20:28:24.711Z,11.41
2023-03-21T20:30:58.545Z,11.49
2023-03-21T20:33:26.989Z,11.47
2023-03-21T20:38:50.918Z,11.32
2023-03-21T20:41:18.965Z,11.30
2023-03-21T20:44:28.468Z,11.24
2023-03-21T20:46:37.108Z,11.26
2023-03-21T20:49:07.666Z,11.18
2023-03-21T20:54:25.728Z,11.22
2023-03-21T20:56:54.020Z,11.31
2023-03-21T20:59:27.198Z,11.23
2023-03-21T21:01:57.449Z,11.21
2023-03-21T21:04:44.122Z,11.11
2023-03-21T21:07:17.307Z,11.19
2023-03-21T21:09:46.476Z,11.14
2023-03-21T21:12:16.409Z,11.01
2023-03-21T21:14:45.422Z,11.06
2023-03-21T21:20:02.393Z,10.95
2023-03-21T21:22:32.533Z,11.19
2023-03-21T21:25:00.587Z,11.21
2023-03-21T21:27:28.522Z,11.31
2023-03-21T21:29:57.532Z,11.30
2023-03-21T21:32:25.526Z,11.39
2023-03-21T21:34:53.567Z,11.43
2023-03-21T21:37:22.520Z,11.25
2023-03-21T21:39:51.729Z,11.05
2023-03-21T21:42:19.820Z,11.30
2023-03-21T21:44:47.943Z,11.27
2023-03-21T21:47:15.804Z,11.24
2023-03-21T21:49:43.942Z,11.29
2023-03-21T21:52:13.687Z,11.36
2023-03-21T21:54:45.588Z,11.28
2023-03-21T21:57:18.962Z,11.11
2023-03-21T21:59:46.814Z,11.29
2023-03-21T22:02:16.906Z,10.97
2023-03-21T22:04:44.805Z,10.87
2023-03-21T22:07:14.610Z,10.96
2023-03-21T22:09:42.786Z,10.92
2023-03-21T22:12:10.777Z,10.82
2023-03-21T22:14:40.969Z,10.59
2023-03-21T22:17:08.652Z,10.74
2023-03-21T22:19:37.837Z,10.89
2023-03-21T22:22:07.685Z,10.73
2023-03-21T22:24:35.768Z,10.78
2023-03-21T22:27:03.775Z,10.68
2023-03-21T22:29:31.583Z,10.45
2023-03-21T22:32:00.891Z,10.29
2023-03-21T22:34:28.745Z,10.53
2023-03-21T22:36:57.705Z,10.53
2023-03-21T22:39:26.388Z,10.62
2023-03-21T22:41:55.136Z,10.32
2023-03-21T22:44:23.010Z,10.64
2023-03-21T22:46:50.830Z,10.59
2023-03-21T22:49:20.238Z,10.59
2023-03-21T22:51:48.017Z,10.03
2023-03-21T22:54:15.922Z,10.27
2023-03-21T22:56:43.687Z,10.28
2023-03-21T22:59:11.499Z,10.33
2023-03-21T23:01:39.953Z,10.47
2023-03-21T23:04:07.943Z,10.34
2023-03-21T23:06:37.392Z,9.87
2023-03-21T23:09:05.335Z,10.35
2023-03-21T23:11:33.166Z,10.14
2023-03-21T23:14:07.810Z,10.05
2023-03-21T23:16:38.328Z,10.42
2023-03-21T23:19:07.780Z,10.36
2023-03-21T23:21:38.321Z,10.43
2023-03-21T23:24:07.147Z,10.48
2023-03-21T23:26:35.778Z,10.36
2023-03-21T23:29:04.376Z,10.50
2023-03-21T23:31:33.018Z,10.37
2023-03-21T23:34:01.870Z,10.44
2023-03-21T23:36:30.400Z,10.33
2023-03-21T23:38:59.562Z,10.33
2023-03-21T23:41:27.394Z,10.32
2023-03-21T23:43:55.262Z,10.15
2023-03-21T23:46:23.165Z,10.20
2023-03-21T23:48:51.193Z,10.36
2023-03-21T23:51:19.379Z,9.67
2023-03-21T23:53:47.602Z,10.08
2023-03-21T23:56:19.549Z,9.86
2023-03-21T23:58:48.130Z,9.79
